Terminal Aerodrome Forecast
Issued by NWS Newport/Morehead City, NC

Home | Current Version | Previous Version | Graphics & Text | Print | Product List | Glossary On
Versions: 1 2 3 4 5 6 7 8 9 10 11 12 13 14
000
FTUS42 KMHX 261700 RRA
TAFEWN
TAF
KEWN 261745Z 2618/2718 VRB04KT P6SM BKN080 OVC150
     FM262200 32007KT P6SM -RA OVC035
     FM270200 30010G16KT 6SM -RA BR SCT007 OVC025
     FM271000 33012G18KT 5SM -RASN SCT007 OVC015
     FM271500 33010KT P6SM OVC025=

USA.gov is the U.S. government's official web portal to all federal, state and local government web resources and services.